Terminal Aerodrome Forecast
Issued by NWS

Current Version | Previous Version | Text Only | Print | Product List | Glossary On
Versions: 1 2 3 4 5 6 7 8 9 10 11 12 13 14 15 16 17 18 19 20
000
FTUS41 KBGM 061142
TAFITH
TAF
KITH 061142Z 0612/0712 08004KT P6SM SKC
     FM061500 13006KT P6SM SCT120
     FM062200 14008KT P6SM OVC090
     FM070000 15007KT 5SM -RASN OVC025
      TEMPO 0700/0704 2SM -RASN OVC015
     FM070400 16007KT 5SM -RASN OVC012
     FM070900 17007KT 5SM -RASN OVC008=

USA.gov is the U.S. government's official web portal to all federal, state and local government web resources and services.